sensor_id;sensor_type;location;lat;lon;timestamp;P1;durP1;ratioP1;P2;durP2;ratioP2
12844;SDS011;6489;48.508;9.206;2022-07-21T00:01:20;25.00;;;14.87;;
12844;SDS011;6489;48.508;9.206;2022-07-21T00:04:42;24.27;;;15.00;;
12844;SDS011;6489;48.508;9.206;2022-07-21T00:08:04;21.17;;;14.93;;
12844;SDS011;6489;48.508;9.206;2022-07-21T00:11:27;27.57;;;15.90;;
12844;SDS011;6489;48.508;9.206;2022-07-21T00:14:49;36.67;;;17.33;;
12844;SDS011;6489;48.508;9.206;2022-07-21T00:18:11;29.23;;;16.50;;
12844;SDS011;6489;48.508;9.206;2022-07-21T00:21:34;26.63;;;15.70;;
12844;SDS011;6489;48.508;9.206;2022-07-21T00:24:56;24.83;;;16.33;;
12844;SDS011;6489;48.508;9.206;2022-07-21T00:28:20;24.07;;;16.93;;
12844;SDS011;6489;48.508;9.206;2022-07-21T00:31:42;26.43;;;15.67;;
12844;SDS011;6489;48.508;9.206;2022-07-21T00:35:05;24.93;;;17.17;;
12844;SDS011;6489;48.508;9.206;2022-07-21T00:38:28;27.37;;;15.67;;
12844;SDS011;6489;48.508;9.206;2022-07-21T00:41:50;25.07;;;14.50;;
12844;SDS011;6489;48.508;9.206;2022-07-21T00:45:13;26.43;;;15.57;;
12844;SDS011;6489;48.508;9.206;2022-07-21T00:48:35;29.53;;;15.87;;
12844;SDS011;6489;48.508;9.206;2022-07-21T00:51:57;27.43;;;14.87;;
12844;SDS011;6489;48.508;9.206;2022-07-21T00:55:20;18.27;;;14.23;;
12844;SDS011;6489;48.508;9.206;2022-07-21T00:58:42;24.20;;;14.37;;
12844;SDS011;6489;48.508;9.206;2022-07-21T01:02:05;17.33;;;13.90;;
12844;SDS011;6489;48.508;9.206;2022-07-21T01:05:27;24.90;;;14.57;;
12844;SDS011;6489;48.508;9.206;2022-07-21T01:08:50;17.00;;;12.97;;
12844;SDS011;6489;48.508;9.206;2022-07-21T01:12:12;19.30;;;13.23;;
12844;SDS011;6489;48.508;9.206;2022-07-21T01:17:37;21.60;;;14.60;;
12844;SDS011;6489;48.508;9.206;2022-07-21T01:21:03;19.37;;;15.17;;
12844;SDS011;6489;48.508;9.206;2022-07-21T01:24:27;19.50;;;14.43;;
12844;SDS011;6489;48.508;9.206;2022-07-21T01:27:49;18.93;;;14.37;;
12844;SDS011;6489;48.508;9.206;2022-07-21T01:31:11;17.17;;;14.20;;
12844;SDS011;6489;48.508;9.206;2022-07-21T01:34:33;24.47;;;14.23;;
12844;SDS011;6489;48.508;9.206;2022-07-21T01:37:55;16.53;;;13.73;;
12844;SDS011;6489;48.508;9.206;2022-07-21T01:41:21;16.93;;;13.13;;
12844;SDS011;6489;48.508;9.206;2022-07-21T01:44:51;19.37;;;13.57;;
12844;SDS011;6489;48.508;9.206;2022-07-21T01:48:13;25.47;;;13.70;;
12844;SDS011;6489;48.508;9.206;2022-07-21T01:51:35;20.30;;;13.63;;
12844;SDS011;6489;48.508;9.206;2022-07-21T01:54:57;14.40;;;11.00;;
12844;SDS011;6489;48.508;9.206;2022-07-21T01:58:20;12.93;;;10.60;;
12844;SDS011;6489;48.508;9.206;2022-07-21T02:01:42;23.57;;;13.03;;
12844;SDS011;6489;48.508;9.206;2022-07-21T02:05:04;23.77;;;13.13;;
12844;SDS011;6489;48.508;9.206;2022-07-21T02:08:26;16.37;;;11.43;;
12844;SDS011;6489;48.508;9.206;2022-07-21T02:11:48;14.53;;;10.40;;
12844;SDS011;6489;48.508;9.206;2022-07-21T02:15:11;20.70;;;10.93;;
12844;SDS011;6489;48.508;9.206;2022-07-21T02:18:33;16.57;;;10.63;;
12844;SDS011;6489;48.508;9.206;2022-07-21T02:21:55;16.73;;;10.20;;
12844;SDS011;6489;48.508;9.206;2022-07-21T02:25:17;14.00;;;9.70;;
12844;SDS011;6489;48.508;9.206;2022-07-21T02:28:40;17.63;;;10.50;;
12844;SDS011;6489;48.508;9.206;2022-07-21T02:32:03;11.13;;;9.37;;
12844;SDS011;6489;48.508;9.206;2022-07-21T02:35:26;14.13;;;9.07;;
12844;SDS011;6489;48.508;9.206;2022-07-21T02:38:47;15.70;;;9.70;;
12844;SDS011;6489;48.508;9.206;2022-07-21T02:42:10;10.40;;;9.40;;
12844;SDS011;6489;48.508;9.206;2022-07-21T02:45:32;13.67;;;9.50;;
12844;SDS011;6489;48.508;9.206;2022-07-21T02:48:56;16.33;;;9.37;;
12844;SDS011;6489;48.508;9.206;2022-07-21T02:52:17;14.00;;;9.70;;
12844;SDS011;6489;48.508;9.206;2022-07-21T02:55:40;12.93;;;9.33;;
12844;SDS011;6489;48.508;9.206;2022-07-21T02:59:02;11.00;;;9.53;;
12844;SDS011;6489;48.508;9.206;2022-07-21T03:02:24;19.37;;;9.80;;
12844;SDS011;6489;48.508;9.206;2022-07-21T03:05:47;12.03;;;8.73;;
12844;SDS011;6489;48.508;9.206;2022-07-21T03:09:10;12.43;;;8.47;;
12844;SDS011;6489;48.508;9.206;2022-07-21T03:12:32;14.70;;;8.13;;
12844;SDS011;6489;48.508;9.206;2022-07-21T03:15:53;12.80;;;7.83;;
12844;SDS011;6489;48.508;9.206;2022-07-21T03:19:15;8.67;;;7.87;;
12844;SDS011;6489;48.508;9.206;2022-07-21T03:22:38;10.57;;;8.40;;
12844;SDS011;6489;48.508;9.206;2022-07-21T03:26:00;16.63;;;8.73;;
12844;SDS011;6489;48.508;9.206;2022-07-21T03:29:23;12.03;;;8.67;;
12844;SDS011;6489;48.508;9.206;2022-07-21T03:32:45;9.80;;;8.80;;
12844;SDS011;6489;48.508;9.206;2022-07-21T03:36:07;22.20;;;9.60;;
12844;SDS011;6489;48.508;9.206;2022-07-21T03:39:31;17.10;;;10.03;;
12844;SDS011;6489;48.508;9.206;2022-07-21T03:42:54;11.70;;;8.73;;
12844;SDS011;6489;48.508;9.206;2022-07-21T03:46:16;9.87;;;8.87;;
12844;SDS011;6489;48.508;9.206;2022-07-21T03:49:38;28.03;;;9.70;;
12844;SDS011;6489;48.508;9.206;2022-07-21T03:53:00;14.50;;;9.47;;
12844;SDS011;6489;48.508;9.206;2022-07-21T03:56:23;13.53;;;9.03;;
12844;SDS011;6489;48.508;9.206;2022-07-21T03:59:46;11.87;;;8.90;;
12844;SDS011;6489;48.508;9.206;2022-07-21T04:03:08;12.87;;;9.53;;
12844;SDS011;6489;48.508;9.206;2022-07-21T04:06:31;11.17;;;9.37;;
12844;SDS011;6489;48.508;9.206;2022-07-21T04:09:53;11.63;;;9.43;;
12844;SDS011;6489;48.508;9.206;2022-07-21T04:13:16;18.30;;;10.53;;
12844;SDS011;6489;48.508;9.206;2022-07-21T04:16:38;16.80;;;10.23;;
12844;SDS011;6489;48.508;9.206;2022-07-21T04:20:00;11.63;;;9.80;;
12844;SDS011;6489;48.508;9.206;2022-07-21T04:23:22;15.70;;;10.27;;
12844;SDS011;6489;48.508;9.206;2022-07-21T04:26:44;11.80;;;9.83;;
12844;SDS011;6489;48.508;9.206;2022-07-21T04:30:08;13.67;;;10.27;;
12844;SDS011;6489;48.508;9.206;2022-07-21T04:33:32;13.07;;;10.63;;
12844;SDS011;6489;48.508;9.206;2022-07-21T04:36:55;11.63;;;10.13;;
12844;SDS011;6489;48.508;9.206;2022-07-21T04:40:17;19.67;;;11.17;;
12844;SDS011;6489;48.508;9.206;2022-07-21T04:43:39;15.83;;;10.40;;
12844;SDS011;6489;48.508;9.206;2022-07-21T04:47:02;15.37;;;11.23;;
12844;SDS011;6489;48.508;9.206;2022-07-21T04:50:25;25.33;;;12.07;;
12844;SDS011;6489;48.508;9.206;2022-07-21T04:53:48;39.77;;;13.23;;
12844;SDS011;6489;48.508;9.206;2022-07-21T04:57:10;22.13;;;11.80;;
12844;SDS011;6489;48.508;9.206;2022-07-21T05:00:32;18.23;;;11.23;;
12844;SDS011;6489;48.508;9.206;2022-07-21T05:03:55;18.00;;;10.63;;
12844;SDS011;6489;48.508;9.206;2022-07-21T05:07:17;17.27;;;11.07;;
12844;SDS011;6489;48.508;9.206;2022-07-21T05:10:39;16.23;;;11.67;;
12844;SDS011;6489;48.508;9.206;2022-07-21T05:14:01;14.67;;;11.77;;
12844;SDS011;6489;48.508;9.206;2022-07-21T05:17:23;16.17;;;11.37;;
12844;SDS011;6489;48.508;9.206;2022-07-21T05:20:46;18.03;;;11.27;;
12844;SDS011;6489;48.508;9.206;2022-07-21T05:24:08;17.27;;;10.73;;
12844;SDS011;6489;48.508;9.206;2022-07-21T05:27:30;16.43;;;11.00;;
12844;SDS011;6489;48.508;9.206;2022-07-21T05:30:52;14.53;;;10.90;;
12844;SDS011;6489;48.508;9.206;2022-07-21T05:34:14;40.90;;;12.37;;
12844;SDS011;6489;48.508;9.206;2022-07-21T05:37:37;23.37;;;11.47;;
12844;SDS011;6489;48.508;9.206;2022-07-21T05:40:59;43.80;;;12.20;;
12844;SDS011;6489;48.508;9.206;2022-07-21T05:44:23;19.93;;;10.60;;
12844;SDS011;6489;48.508;9.206;2022-07-21T05:47:44;19.10;;;10.37;;
12844;SDS011;6489;48.508;9.206;2022-07-21T05:51:06;20.43;;;10.60;;
12844;SDS011;6489;48.508;9.206;2022-07-21T05:54:30;21.07;;;10.83;;
12844;SDS011;6489;48.508;9.206;2022-07-21T05:57:52;24.97;;;11.17;;
12844;SDS011;6489;48.508;9.206;2022-07-21T06:01:14;17.80;;;9.90;;
12844;SDS011;6489;48.508;9.206;2022-07-21T06:04:37;26.47;;;9.83;;
12844;SDS011;6489;48.508;9.206;2022-07-21T06:07:59;20.33;;;9.37;;
12844;SDS011;6489;48.508;9.206;2022-07-21T06:11:23;21.70;;;9.83;;
12844;SDS011;6489;48.508;9.206;2022-07-21T06:14:45;38.50;;;10.27;;
12844;SDS011;6489;48.508;9.206;2022-07-21T06:18:09;28.20;;;10.43;;
12844;SDS011;6489;48.508;9.206;2022-07-21T06:21:31;17.13;;;8.93;;
12844;SDS011;6489;48.508;9.206;2022-07-21T06:24:53;21.50;;;9.80;;
12844;SDS011;6489;48.508;9.206;2022-07-21T06:28:17;30.00;;;10.93;;
12844;SDS011;6489;48.508;9.206;2022-07-21T06:31:40;20.27;;;9.87;;
12844;SDS011;6489;48.508;9.206;2022-07-21T06:35:02;28.60;;;10.70;;
12844;SDS011;6489;48.508;9.206;2022-07-21T06:38:24;14.17;;;8.87;;
12844;SDS011;6489;48.508;9.206;2022-07-21T06:41:46;23.20;;;8.53;;
12844;SDS011;6489;48.508;9.206;2022-07-21T06:45:10;15.47;;;7.87;;
12844;SDS011;6489;48.508;9.206;2022-07-21T06:48:32;25.77;;;8.97;;
12844;SDS011;6489;48.508;9.206;2022-07-21T06:51:54;24.57;;;8.27;;
12844;SDS011;6489;48.508;9.206;2022-07-21T06:55:16;15.57;;;7.87;;
12844;SDS011;6489;48.508;9.206;2022-07-21T06:58:38;36.50;;;8.97;;
12844;SDS011;6489;48.508;9.206;2022-07-21T07:02:02;37.10;;;9.27;;
12844;SDS011;6489;48.508;9.206;2022-07-21T07:05:24;24.60;;;8.77;;
12844;SDS011;6489;48.508;9.206;2022-07-21T07:08:47;12.47;;;7.33;;
12844;SDS011;6489;48.508;9.206;2022-07-21T07:12:09;15.90;;;8.13;;
12844;SDS011;6489;48.508;9.206;2022-07-21T07:15:31;10.27;;;7.87;;
12844;SDS011;6489;48.508;9.206;2022-07-21T07:18:54;23.50;;;8.37;;
12844;SDS011;6489;48.508;9.206;2022-07-21T07:22:16;12.03;;;7.20;;
12844;SDS011;6489;48.508;9.206;2022-07-21T07:25:38;9.87;;;8.23;;
12844;SDS011;6489;48.508;9.206;2022-07-21T07:29:00;26.97;;;8.27;;
12844;SDS011;6489;48.508;9.206;2022-07-21T07:32:22;10.07;;;8.37;;
12844;SDS011;6489;48.508;9.206;2022-07-21T07:35:46;19.93;;;9.20;;
12844;SDS011;6489;48.508;9.206;2022-07-21T07:39:07;12.23;;;7.00;;
12844;SDS011;6489;48.508;9.206;2022-07-21T07:42:29;23.73;;;8.57;;
12844;SDS011;6489;48.508;9.206;2022-07-21T07:45:51;13.03;;;7.50;;
12844;SDS011;6489;48.508;9.206;2022-07-21T07:49:13;11.07;;;7.30;;
12844;SDS011;6489;48.508;9.206;2022-07-21T07:52:37;17.33;;;8.00;;
12844;SDS011;6489;48.508;9.206;2022-07-21T07:55:59;13.20;;;7.80;;
12844;SDS011;6489;48.508;9.206;2022-07-21T07:59:21;13.20;;;7.67;;
12844;SDS011;6489;48.508;9.206;2022-07-21T08:02:43;15.30;;;7.73;;
12844;SDS011;6489;48.508;9.206;2022-07-21T08:06:06;11.83;;;7.20;;
12844;SDS011;6489;48.508;9.206;2022-07-21T08:09:29;22.37;;;7.70;;
12844;SDS011;6489;48.508;9.206;2022-07-21T08:12:51;19.47;;;7.97;;
12844;SDS011;6489;48.508;9.206;2022-07-21T08:16:13;10.43;;;7.07;;
12844;SDS011;6489;48.508;9.206;2022-07-21T08:19:35;18.23;;;8.17;;
12844;SDS011;6489;48.508;9.206;2022-07-21T08:22:57;16.17;;;7.87;;
12844;SDS011;6489;48.508;9.206;2022-07-21T08:26:20;7.77;;;6.67;;
12844;SDS011;6489;48.508;9.206;2022-07-21T08:29:42;15.37;;;6.77;;
12844;SDS011;6489;48.508;9.206;2022-07-21T08:33:06;17.43;;;7.33;;
12844;SDS011;6489;48.508;9.206;2022-07-21T08:36:28;12.33;;;6.80;;
12844;SDS011;6489;48.508;9.206;2022-07-21T08:39:50;8.23;;;6.63;;
12844;SDS011;6489;48.508;9.206;2022-07-21T08:43:13;12.10;;;7.27;;
12844;SDS011;6489;48.508;9.206;2022-07-21T08:46:36;13.37;;;7.13;;
12844;SDS011;6489;48.508;9.206;2022-07-21T08:49:59;7.93;;;7.13;;
12844;SDS011;6489;48.508;9.206;2022-07-21T08:53:22;8.60;;;6.63;;
12844;SDS011;6489;48.508;9.206;2022-07-21T08:56:45;14.73;;;7.23;;
12844;SDS011;6489;48.508;9.206;2022-07-21T09:00:09;10.17;;;6.63;;
12844;SDS011;6489;48.508;9.206;2022-07-21T09:03:32;9.73;;;6.73;;
12844;SDS011;6489;48.508;9.206;2022-07-21T09:06:55;11.60;;;7.10;;
12844;SDS011;6489;48.508;9.206;2022-07-21T09:10:20;12.13;;;6.77;;
12844;SDS011;6489;48.508;9.206;2022-07-21T09:13:44;17.53;;;7.57;;
12844;SDS011;6489;48.508;9.206;2022-07-21T09:17:13;12.37;;;6.87;;
12844;SDS011;6489;48.508;9.206;2022-07-21T09:20:37;25.47;;;8.00;;
12844;SDS011;6489;48.508;9.206;2022-07-21T09:24:10;14.87;;;7.13;;
12844;SDS011;6489;48.508;9.206;2022-07-21T09:27:37;16.83;;;6.80;;
12844;SDS011;6489;48.508;9.206;2022-07-21T09:30:59;17.73;;;7.33;;
12844;SDS011;6489;48.508;9.206;2022-07-21T09:34:24;13.53;;;7.03;;
12844;SDS011;6489;48.508;9.206;2022-07-21T09:37:47;15.77;;;7.00;;
12844;SDS011;6489;48.508;9.206;2022-07-21T09:41:10;12.33;;;6.23;;
12844;SDS011;6489;48.508;9.206;2022-07-21T09:44:34;11.80;;;6.53;;
12844;SDS011;6489;48.508;9.206;2022-07-21T09:47:57;14.87;;;6.33;;
12844;SDS011;6489;48.508;9.206;2022-07-21T09:51:27;10.30;;;6.43;;
12844;SDS011;6489;48.508;9.206;2022-07-21T09:54:52;22.03;;;6.87;;
12844;SDS011;6489;48.508;9.206;2022-07-21T09:58:15;9.27;;;5.83;;
12844;SDS011;6489;48.508;9.206;2022-07-21T10:03:37;14.83;;;5.90;;
12844;SDS011;6489;48.508;9.206;2022-07-21T10:06:59;31.90;;;7.13;;
12844;SDS011;6489;48.508;9.206;2022-07-21T10:10:23;14.13;;;5.60;;
12844;SDS011;6489;48.508;9.206;2022-07-21T10:13:45;57.13;;;8.50;;
12844;SDS011;6489;48.508;9.206;2022-07-21T10:17:07;27.03;;;6.60;;
12844;SDS011;6489;48.508;9.206;2022-07-21T10:20:31;22.20;;;6.80;;
12844;SDS011;6489;48.508;9.206;2022-07-21T10:23:57;9.47;;;5.37;;
12844;SDS011;6489;48.508;9.206;2022-07-21T10:27:20;16.20;;;5.53;;
12844;SDS011;6489;48.508;9.206;2022-07-21T10:30:42;16.70;;;5.47;;
12844;SDS011;6489;48.508;9.206;2022-07-21T10:34:05;9.77;;;5.10;;
12844;SDS011;6489;48.508;9.206;2022-07-21T10:41:07;15.33;;;5.50;;
12844;SDS011;6489;48.508;9.206;2022-07-21T10:44:49;25.67;;;5.97;;
12844;SDS011;6489;48.508;9.206;2022-07-21T10:56:04;14.17;;;6.47;;
12844;SDS011;6489;48.508;9.206;2022-07-21T10:59:26;12.20;;;5.67;;
12844;SDS011;6489;48.508;9.206;2022-07-21T11:03:13;11.30;;;5.60;;
12844;SDS011;6489;48.508;9.206;2022-07-21T11:06:46;20.37;;;6.50;;
12844;SDS011;6489;48.508;9.206;2022-07-21T11:10:16;11.97;;;5.70;;
12844;SDS011;6489;48.508;9.206;2022-07-21T11:13:59;10.97;;;6.20;;
12844;SDS011;6489;48.508;9.206;2022-07-21T11:17:24;14.00;;;6.17;;
12844;SDS011;6489;48.508;9.206;2022-07-21T11:24:39;11.17;;;5.23;;
12844;SDS011;6489;48.508;9.206;2022-07-21T11:28:01;10.07;;;5.53;;
12844;SDS011;6489;48.508;9.206;2022-07-21T11:31:25;20.20;;;6.40;;
12844;SDS011;6489;48.508;9.206;2022-07-21T11:34:47;8.53;;;5.63;;
12844;SDS011;6489;48.508;9.206;2022-07-21T11:38:10;5.63;;;4.83;;
12844;SDS011;6489;48.508;9.206;2022-07-21T11:41:32;18.30;;;6.00;;
12844;SDS011;6489;48.508;9.206;2022-07-21T11:44:56;7.60;;;5.40;;
12844;SDS011;6489;48.508;9.206;2022-07-21T11:48:30;15.05;;;5.88;;
12844;SDS011;6489;48.508;9.206;2022-07-21T11:51:53;28.13;;;6.07;;
12844;SDS011;6489;48.508;9.206;2022-07-21T11:55:17;6.97;;;4.90;;
12844;SDS011;6489;48.508;9.206;2022-07-21T11:58:39;8.45;;;4.93;;
12844;SDS011;6489;48.508;9.206;2022-07-21T12:02:03;23.93;;;5.73;;
12844;SDS011;6489;48.508;9.206;2022-07-21T12:05:29;35.58;;;6.15;;
12844;SDS011;6489;48.508;9.206;2022-07-21T12:08:51;10.90;;;5.10;;
12844;SDS011;6489;48.508;9.206;2022-07-21T12:12:13;13.20;;;5.50;;
12844;SDS011;6489;48.508;9.206;2022-07-21T12:15:36;13.63;;;5.38;;
12844;SDS011;6489;48.508;9.206;2022-07-21T12:19:08;8.32;;;4.82;;
12844;SDS011;6489;48.508;9.206;2022-07-21T12:22:33;13.38;;;5.32;;
12844;SDS011;6489;48.508;9.206;2022-07-21T12:25:56;8.55;;;5.00;;
12844;SDS011;6489;48.508;9.206;2022-07-21T12:29:25;12.32;;;4.68;;
12844;SDS011;6489;48.508;9.206;2022-07-21T12:32:50;10.50;;;5.00;;
12844;SDS011;6489;48.508;9.206;2022-07-21T12:36:12;19.67;;;5.60;;
12844;SDS011;6489;48.508;9.206;2022-07-21T12:39:35;18.17;;;5.90;;
12844;SDS011;6489;48.508;9.206;2022-07-21T12:43:15;6.45;;;4.80;;
12844;SDS011;6489;48.508;9.206;2022-07-21T12:46:38;23.10;;;5.63;;
12844;SDS011;6489;48.508;9.206;2022-07-21T12:50:03;16.73;;;5.17;;
12844;SDS011;6489;48.508;9.206;2022-07-21T12:53:26;17.97;;;5.20;;
12844;SDS011;6489;48.508;9.206;2022-07-21T12:56:49;14.23;;;4.97;;
12844;SDS011;6489;48.508;9.206;2022-07-21T13:00:11;16.37;;;5.20;;
12844;SDS011;6489;48.508;9.206;2022-07-21T13:03:34;23.63;;;5.72;;
12844;SDS011;6489;48.508;9.206;2022-07-21T13:06:56;15.77;;;5.60;;
12844;SDS011;6489;48.508;9.206;2022-07-21T13:10:18;19.67;;;5.40;;
12844;SDS011;6489;48.508;9.206;2022-07-21T13:13:42;25.83;;;5.75;;
12844;SDS011;6489;48.508;9.206;2022-07-21T13:17:05;20.40;;;5.60;;
12844;SDS011;6489;48.508;9.206;2022-07-21T13:20:28;26.63;;;6.10;;
12844;SDS011;6489;48.508;9.206;2022-07-21T13:23:50;23.67;;;5.50;;
12844;SDS011;6489;48.508;9.206;2022-07-21T13:27:12;12.18;;;5.47;;
12844;SDS011;6489;48.508;9.206;2022-07-21T13:30:35;15.85;;;4.88;;
12844;SDS011;6489;48.508;9.206;2022-07-21T13:33:57;16.67;;;5.15;;
12844;SDS011;6489;48.508;9.206;2022-07-21T13:37:19;14.38;;;5.40;;
12844;SDS011;6489;48.508;9.206;2022-07-21T13:40:41;18.27;;;5.38;;
12844;SDS011;6489;48.508;9.206;2022-07-21T13:44:03;37.75;;;6.45;;
12844;SDS011;6489;48.508;9.206;2022-07-21T13:47:27;21.60;;;5.40;;
12844;SDS011;6489;48.508;9.206;2022-07-21T13:50:49;41.50;;;6.32;;
12844;SDS011;6489;48.508;9.206;2022-07-21T13:54:11;42.90;;;6.70;;
12844;SDS011;6489;48.508;9.206;2022-07-21T13:57:32;15.32;;;4.95;;
12844;SDS011;6489;48.508;9.206;2022-07-21T14:00:55;21.85;;;5.30;;
12844;SDS011;6489;48.508;9.206;2022-07-21T14:04:19;10.73;;;4.75;;
12844;SDS011;6489;48.508;9.206;2022-07-21T14:07:40;9.90;;;4.82;;
12844;SDS011;6489;48.508;9.206;2022-07-21T14:11:02;21.85;;;5.28;;
12844;SDS011;6489;48.508;9.206;2022-07-21T14:14:25;26.13;;;6.03;;
12844;SDS011;6489;48.508;9.206;2022-07-21T14:17:47;16.40;;;4.75;;
12844;SDS011;6489;48.508;9.206;2022-07-21T14:21:10;23.17;;;5.05;;
12844;SDS011;6489;48.508;9.206;2022-07-21T14:24:32;19.10;;;5.00;;
12844;SDS011;6489;48.508;9.206;2022-07-21T14:28:12;17.95;;;5.07;;
12844;SDS011;6489;48.508;9.206;2022-07-21T14:31:34;27.73;;;5.85;;
12844;SDS011;6489;48.508;9.206;2022-07-21T14:34:57;21.03;;;5.17;;
12844;SDS011;6489;48.508;9.206;2022-07-21T14:38:20;9.60;;;4.20;;
12844;SDS011;6489;48.508;9.206;2022-07-21T14:41:42;31.15;;;6.28;;
12844;SDS011;6489;48.508;9.206;2022-07-21T14:45:05;12.30;;;4.77;;
12844;SDS011;6489;48.508;9.206;2022-07-21T14:48:28;16.40;;;4.90;;
12844;SDS011;6489;48.508;9.206;2022-07-21T14:51:50;8.50;;;4.83;;
12844;SDS011;6489;48.508;9.206;2022-07-21T14:55:13;19.57;;;5.07;;
12844;SDS011;6489;48.508;9.206;2022-07-21T14:58:35;13.52;;;4.90;;
12844;SDS011;6489;48.508;9.206;2022-07-21T15:01:57;18.83;;;5.22;;
12844;SDS011;6489;48.508;9.206;2022-07-21T15:05:19;22.67;;;5.80;;
12844;SDS011;6489;48.508;9.206;2022-07-21T15:08:41;10.07;;;4.67;;
12844;SDS011;6489;48.508;9.206;2022-07-21T15:12:05;30.05;;;5.90;;
12844;SDS011;6489;48.508;9.206;2022-07-21T15:15:27;15.20;;;4.78;;
12844;SDS011;6489;48.508;9.206;2022-07-21T15:18:49;9.27;;;4.78;;
12844;SDS011;6489;48.508;9.206;2022-07-21T15:22:11;27.50;;;5.65;;
12844;SDS011;6489;48.508;9.206;2022-07-21T15:25:34;30.60;;;5.80;;
12844;SDS011;6489;48.508;9.206;2022-07-21T15:28:57;10.75;;;4.28;;
12844;SDS011;6489;48.508;9.206;2022-07-21T15:32:20;26.87;;;5.77;;
12844;SDS011;6489;48.508;9.206;2022-07-21T15:35:43;18.03;;;4.93;;
12844;SDS011;6489;48.508;9.206;2022-07-21T15:39:04;8.47;;;5.00;;
12844;SDS011;6489;48.508;9.206;2022-07-21T15:42:26;17.07;;;5.40;;
12844;SDS011;6489;48.508;9.206;2022-07-21T15:45:50;17.40;;;5.90;;
12844;SDS011;6489;48.508;9.206;2022-07-21T15:49:11;13.13;;;5.33;;
12844;SDS011;6489;48.508;9.206;2022-07-21T15:52:37;32.23;;;6.27;;
12844;SDS011;6489;48.508;9.206;2022-07-21T15:55:58;16.50;;;5.50;;
12844;SDS011;6489;48.508;9.206;2022-07-21T15:59:20;19.33;;;5.63;;
12844;SDS011;6489;48.508;9.206;2022-07-21T16:02:59;16.67;;;5.80;;
12844;SDS011;6489;48.508;9.206;2022-07-21T16:06:21;14.57;;;5.47;;
12844;SDS011;6489;48.508;9.206;2022-07-21T16:09:43;37.83;;;6.53;;
12844;SDS011;6489;48.508;9.206;2022-07-21T16:13:05;24.60;;;6.50;;
12844;SDS011;6489;48.508;9.206;2022-07-21T16:16:27;57.50;;;7.83;;
12844;SDS011;6489;48.508;9.206;2022-07-21T16:19:51;14.00;;;5.27;;
12844;SDS011;6489;48.508;9.206;2022-07-21T16:23:13;20.77;;;6.47;;
12844;SDS011;6489;48.508;9.206;2022-07-21T16:26:35;24.53;;;6.80;;
12844;SDS011;6489;48.508;9.206;2022-07-21T16:29:57;18.10;;;6.13;;
12844;SDS011;6489;48.508;9.206;2022-07-21T16:33:19;16.33;;;5.73;;
12844;SDS011;6489;48.508;9.206;2022-07-21T16:36:42;31.30;;;6.60;;
12844;SDS011;6489;48.508;9.206;2022-07-21T16:40:04;22.97;;;6.27;;
12844;SDS011;6489;48.508;9.206;2022-07-21T16:43:27;8.13;;;5.40;;
12844;SDS011;6489;48.508;9.206;2022-07-21T16:46:49;12.27;;;5.33;;
12844;SDS011;6489;48.508;9.206;2022-07-21T16:50:11;9.03;;;5.50;;
12844;SDS011;6489;48.508;9.206;2022-07-21T16:53:35;12.70;;;5.47;;
12844;SDS011;6489;48.508;9.206;2022-07-21T16:56:57;17.47;;;5.80;;
12844;SDS011;6489;48.508;9.206;2022-07-21T17:00:19;22.17;;;6.07;;
12844;SDS011;6489;48.508;9.206;2022-07-21T17:03:41;18.00;;;5.53;;
12844;SDS011;6489;48.508;9.206;2022-07-21T17:07:03;14.23;;;5.83;;
12844;SDS011;6489;48.508;9.206;2022-07-21T17:10:26;11.10;;;4.93;;
12844;SDS011;6489;48.508;9.206;2022-07-21T17:13:48;33.33;;;7.23;;
12844;SDS011;6489;48.508;9.206;2022-07-21T17:17:10;14.43;;;5.53;;
12844;SDS011;6489;48.508;9.206;2022-07-21T17:20:32;8.60;;;4.97;;
12844;SDS011;6489;48.508;9.206;2022-07-21T17:23:54;12.07;;;5.83;;
12844;SDS011;6489;48.508;9.206;2022-07-21T17:27:17;24.17;;;6.30;;
12844;SDS011;6489;48.508;9.206;2022-07-21T17:30:40;9.40;;;5.17;;
12844;SDS011;6489;48.508;9.206;2022-07-21T17:34:02;42.30;;;9.27;;
12844;SDS011;6489;48.508;9.206;2022-07-21T17:37:24;23.97;;;6.33;;
12844;SDS011;6489;48.508;9.206;2022-07-21T17:40:48;18.93;;;5.77;;
12844;SDS011;6489;48.508;9.206;2022-07-21T17:44:12;12.50;;;5.33;;
12844;SDS011;6489;48.508;9.206;2022-07-21T17:47:34;6.63;;;5.10;;
12844;SDS011;6489;48.508;9.206;2022-07-21T17:50:57;14.80;;;5.70;;
12844;SDS011;6489;48.508;9.206;2022-07-21T17:54:19;48.77;;;7.57;;
12844;SDS011;6489;48.508;9.206;2022-07-21T17:57:41;6.53;;;4.93;;
12844;SDS011;6489;48.508;9.206;2022-07-21T18:01:21;15.60;;;5.67;;
12844;SDS011;6489;48.508;9.206;2022-07-21T18:04:43;33.90;;;7.13;;
12844;SDS011;6489;48.508;9.206;2022-07-21T18:08:05;15.07;;;5.57;;
12844;SDS011;6489;48.508;9.206;2022-07-21T18:11:27;14.83;;;5.70;;
12844;SDS011;6489;48.508;9.206;2022-07-21T18:14:50;13.30;;;5.97;;
12844;SDS011;6489;48.508;9.206;2022-07-21T18:18:13;24.30;;;6.30;;
12844;SDS011;6489;48.508;9.206;2022-07-21T18:21:36;11.67;;;5.47;;
12844;SDS011;6489;48.508;9.206;2022-07-21T18:24:59;18.00;;;6.07;;
12844;SDS011;6489;48.508;9.206;2022-07-21T18:28:21;15.77;;;6.43;;
12844;SDS011;6489;48.508;9.206;2022-07-21T18:31:43;13.17;;;5.90;;
12844;SDS011;6489;48.508;9.206;2022-07-21T18:35:06;25.13;;;6.20;;
12844;SDS011;6489;48.508;9.206;2022-07-21T18:38:28;25.40;;;6.37;;
12844;SDS011;6489;48.508;9.206;2022-07-21T18:41:50;16.67;;;5.50;;
12844;SDS011;6489;48.508;9.206;2022-07-21T18:45:12;31.03;;;7.27;;
12844;SDS011;6489;48.508;9.206;2022-07-21T18:48:34;16.33;;;6.33;;
12844;SDS011;6489;48.508;9.206;2022-07-21T18:51:57;21.40;;;6.13;;
12844;SDS011;6489;48.508;9.206;2022-07-21T18:55:19;21.33;;;6.30;;
12844;SDS011;6489;48.508;9.206;2022-07-21T18:58:41;23.47;;;6.87;;
12844;SDS011;6489;48.508;9.206;2022-07-21T19:02:03;30.50;;;7.27;;
12844;SDS011;6489;48.508;9.206;2022-07-21T19:05:26;14.27;;;6.20;;
12844;SDS011;6489;48.508;9.206;2022-07-21T19:08:49;38.83;;;8.17;;
12844;SDS011;6489;48.508;9.206;2022-07-21T19:12:11;16.00;;;5.53;;
12844;SDS011;6489;48.508;9.206;2022-07-21T19:15:33;19.33;;;6.60;;
12844;SDS011;6489;48.508;9.206;2022-07-21T19:18:55;23.00;;;6.67;;
12844;SDS011;6489;48.508;9.206;2022-07-21T19:22:17;10.57;;;5.67;;
12844;SDS011;6489;48.508;9.206;2022-07-21T19:25:41;10.90;;;5.93;;
12844;SDS011;6489;48.508;9.206;2022-07-21T19:29:02;13.67;;;6.37;;
12844;SDS011;6489;48.508;9.206;2022-07-21T19:32:25;17.27;;;6.60;;
12844;SDS011;6489;48.508;9.206;2022-07-21T19:35:46;12.73;;;6.33;;
12844;SDS011;6489;48.508;9.206;2022-07-21T19:39:08;13.90;;;6.50;;
12844;SDS011;6489;48.508;9.206;2022-07-21T19:42:31;15.70;;;6.43;;
12844;SDS011;6489;48.508;9.206;2022-07-21T19:45:53;24.90;;;7.33;;
12844;SDS011;6489;48.508;9.206;2022-07-21T19:49:15;17.27;;;7.60;;
12844;SDS011;6489;48.508;9.206;2022-07-21T19:52:37;10.90;;;6.70;;
12844;SDS011;6489;48.508;9.206;2022-07-21T19:55:59;9.60;;;6.97;;
12844;SDS011;6489;48.508;9.206;2022-07-21T19:59:23;9.53;;;5.90;;
12844;SDS011;6489;48.508;9.206;2022-07-21T20:02:45;12.23;;;6.13;;
12844;SDS011;6489;48.508;9.206;2022-07-21T20:06:08;6.10;;;5.50;;
12844;SDS011;6489;48.508;9.206;2022-07-21T20:09:29;13.93;;;6.10;;
12844;SDS011;6489;48.508;9.206;2022-07-21T20:12:51;22.33;;;6.77;;
12844;SDS011;6489;48.508;9.206;2022-07-21T20:16:14;8.90;;;6.10;;
12844;SDS011;6489;48.508;9.206;2022-07-21T20:19:37;17.80;;;6.57;;
12844;SDS011;6489;48.508;9.206;2022-07-21T20:22:59;11.90;;;6.33;;
12844;SDS011;6489;48.508;9.206;2022-07-21T20:26:20;15.70;;;6.50;;
12844;SDS011;6489;48.508;9.206;2022-07-21T20:29:42;17.77;;;6.70;;
12844;SDS011;6489;48.508;9.206;2022-07-21T20:33:06;10.27;;;6.20;;
12844;SDS011;6489;48.508;9.206;2022-07-21T20:36:29;22.53;;;6.90;;
12844;SDS011;6489;48.508;9.206;2022-07-21T20:39:52;9.10;;;6.53;;